createdAt,value
2022-10-22T00:02:45.241Z,14.18
2022-10-22T00:05:48.504Z,14.23
2022-10-22T00:08:51.539Z,14.47
2022-10-22T00:11:54.799Z,14.37
2022-10-22T00:14:57.676Z,14.38
2022-10-22T00:17:59.766Z,14.21
2022-10-22T00:21:02.094Z,14.32
2022-10-22T00:24:04.619Z,14.36
2022-10-22T00:27:10.367Z,14.41
2022-10-22T00:30:12.709Z,14.35
2022-10-22T00:33:15.302Z,14.33
2022-10-22T00:36:17.659Z,14.51
2022-10-22T00:39:22.964Z,14.41
2022-10-22T00:42:26.844Z,14.35
2022-10-22T00:45:29.563Z,14.23
2022-10-22T00:48:33.785Z,14.36
2022-10-22T00:51:36.620Z,14.36
2022-10-22T00:54:41.322Z,14.31
2022-10-22T00:57:43.993Z,14.23
2022-10-22T01:00:46.023Z,14.19
2022-10-22T01:03:49.544Z,14.29
2022-10-22T01:06:52.159Z,14.26
2022-10-22T01:10:20.198Z,14.34
2022-10-22T01:13:37.162Z,13.90
2022-10-22T01:17:09.729Z,14.31
2022-10-22T01:20:33.134Z,14.27
2022-10-22T01:24:22.863Z,14.17
2022-10-22T01:28:19.790Z,14.39
2022-10-22T01:31:23.947Z,14.23
2022-10-22T01:34:28.230Z,14.23
2022-10-22T01:37:34.932Z,14.31
2022-10-22T01:40:37.799Z,14.33
2022-10-22T01:43:40.339Z,14.21
2022-10-22T01:46:44.477Z,14.31
2022-10-22T01:50:09.474Z,14.27
2022-10-22T01:53:38.541Z,14.35
2022-10-22T01:57:19.203Z,14.33
2022-10-22T02:00:22.166Z,14.17
2022-10-22T02:03:38.492Z,14.31
2022-10-22T02:06:48.774Z,14.33
2022-10-22T02:09:55.333Z,14.27
2022-10-22T02:13:02.077Z,14.46
2022-10-22T02:16:11.588Z,14.20
2022-10-22T02:19:25.310Z,14.53
2022-10-22T02:22:28.748Z,14.48
2022-10-22T02:25:36.339Z,14.29
2022-10-22T02:29:08.216Z,14.41
2022-10-22T02:32:19.387Z,14.42
2022-10-22T02:35:24.843Z,14.19
2022-10-22T02:38:28.467Z,14.17
2022-10-22T02:41:31.023Z,14.13
2022-10-22T02:44:33.246Z,14.26
2022-10-22T02:47:35.475Z,14.16
2022-10-22T02:50:37.627Z,14.10
2022-10-22T02:53:39.849Z,14.02
2022-10-22T02:56:42.433Z,14.46
2022-10-22T02:59:45.205Z,14.33
2022-10-22T03:02:47.470Z,14.25
2022-10-22T03:05:51.493Z,14.14
2022-10-22T03:08:53.904Z,14.23
2022-10-22T03:11:56.122Z,14.33
2022-10-22T03:14:58.255Z,14.34
2022-10-22T03:18:00.399Z,14.42
2022-10-22T03:21:22.511Z,14.01
2022-10-22T03:24:30.626Z,14.35
2022-10-22T03:27:34.158Z,14.25
2022-10-22T03:30:36.408Z,15.30
2022-10-22T03:33:38.401Z,16.76
2022-10-22T03:36:41.501Z,17.75
2022-10-22T03:39:43.780Z,17.04
2022-10-22T03:42:46.163Z,17.09
2022-10-22T03:45:48.343Z,17.80
2022-10-22T03:48:51.173Z,18.35
2022-10-22T03:51:53.245Z,17.53
2022-10-22T03:54:55.206Z,17.54
2022-10-22T03:57:57.197Z,17.45
2022-10-22T04:01:05.831Z,17.44
2022-10-22T04:04:08.367Z,17.67
2022-10-22T04:07:10.390Z,17.87
2022-10-22T04:10:12.625Z,17.94
2022-10-22T04:13:14.580Z,17.78
2022-10-22T04:16:19.821Z,17.52
2022-10-22T04:19:21.919Z,17.34
2022-10-22T04:22:24.106Z,17.34
2022-10-22T04:25:26.645Z,17.23
2022-10-22T04:28:29.364Z,17.21
2022-10-22T04:31:34.828Z,17.00
2022-10-22T04:34:38.019Z,16.97
2022-10-22T04:37:40.541Z,17.03
2022-10-22T04:40:42.782Z,17.58
2022-10-22T04:43:48.195Z,17.18
2022-10-22T04:46:51.608Z,17.02
2022-10-22T04:49:53.612Z,16.96
2022-10-22T04:52:55.856Z,16.86
2022-10-22T04:56:11.078Z,16.58
2022-10-22T04:59:14.076Z,16.48
2022-10-22T05:02:16.134Z,16.61
2022-10-22T05:05:18.163Z,16.60
2022-10-22T05:08:20.434Z,16.37
2022-10-22T05:11:25.891Z,16.42
2022-10-22T05:14:28.207Z,16.60
2022-10-22T05:17:36.730Z,16.38
2022-10-22T05:20:42.364Z,16.41
2022-10-22T05:23:46.456Z,16.28
2022-10-22T05:26:56.602Z,16.48
2022-10-22T05:29:59.440Z,16.28
2022-10-22T05:33:26.140Z,16.25
2022-10-22T05:36:28.507Z,16.20
2022-10-22T05:39:31.607Z,16.10
2022-10-22T05:42:33.669Z,16.11
2022-10-22T05:45:42.438Z,16.13
2022-10-22T05:48:44.858Z,16.03
2022-10-22T05:51:47.314Z,15.93
2022-10-22T05:54:49.625Z,15.92
2022-10-22T05:57:52.032Z,15.97
2022-10-22T06:00:54.183Z,16.07
2022-10-22T06:03:59.160Z,16.01
2022-10-22T06:07:02.875Z,15.98
2022-10-22T06:10:07.768Z,15.88
2022-10-22T06:13:10.448Z,15.93
2022-10-22T06:16:13.558Z,16.04
2022-10-22T06:19:17.544Z,15.93
2022-10-22T06:22:20.810Z,16.02
2022-10-22T06:25:24.060Z,16.07
2022-10-22T06:28:27.091Z,15.87
2022-10-22T06:31:30.346Z,15.89
2022-10-22T06:34:32.417Z,16.03
2022-10-22T06:37:34.601Z,15.93
2022-10-22T06:40:36.795Z,15.70
2022-10-22T06:43:40.648Z,15.91
2022-10-22T06:46:43.651Z,15.85
2022-10-22T06:49:45.933Z,16.10
2022-10-22T06:52:48.144Z,16.03
2022-10-22T06:55:50.128Z,16.08
2022-10-22T06:58:55.724Z,16.20
2022-10-22T07:02:01.265Z,16.03
2022-10-22T07:05:04.779Z,16.20
2022-10-22T07:08:12.604Z,16.18
2022-10-22T07:11:16.362Z,16.37
2022-10-22T07:14:19.752Z,16.44
2022-10-22T07:17:23.812Z,16.32
2022-10-22T07:20:26.021Z,16.44
2022-10-22T07:23:29.284Z,16.50
2022-10-22T07:26:32.890Z,16.38
2022-10-22T07:29:35.079Z,16.41
2022-10-22T07:32:37.411Z,16.49
2022-10-22T07:35:41.163Z,16.60
2022-10-22T07:38:50.522Z,16.51
2022-10-22T07:41:53.008Z,16.67
2022-10-22T07:44:55.197Z,16.58
2022-10-22T07:48:00.722Z,16.78
2022-10-22T07:51:02.923Z,16.72
2022-10-22T07:54:05.193Z,16.60
2022-10-22T07:57:07.262Z,16.68
2022-10-22T08:00:10.276Z,16.55
2022-10-22T08:03:16.039Z,16.89
2022-10-22T08:06:18.051Z,16.92
2022-10-22T08:09:20.121Z,16.87
2022-10-22T08:12:22.129Z,16.78
2022-10-22T08:15:25.704Z,16.82
2022-10-22T08:18:28.141Z,16.85
2022-10-22T08:21:30.374Z,16.93
2022-10-22T08:24:33.607Z,16.98
2022-10-22T08:27:40.128Z,17.14
2022-10-22T08:30:42.963Z,17.16
2022-10-22T08:33:45.609Z,17.22
2022-10-22T08:36:47.747Z,17.06
2022-10-22T08:39:50.268Z,17.25
2022-10-22T08:42:58.100Z,17.29
2022-10-22T08:46:10.246Z,17.27
2022-10-22T08:49:26.344Z,17.20
2022-10-22T08:52:29.482Z,17.31
2022-10-22T08:55:36.601Z,17.34
2022-10-22T08:58:58.364Z,17.30
2022-10-22T09:02:01.576Z,17.43
2022-10-22T09:05:14.289Z,17.38
2022-10-22T09:08:19.624Z,17.50
2022-10-22T09:11:33.694Z,17.33
2022-10-22T09:14:35.763Z,17.54
2022-10-22T09:18:21.765Z,17.57
2022-10-22T09:21:38.725Z,17.58
2022-10-22T09:24:47.772Z,17.54
2022-10-22T09:27:51.012Z,17.40
2022-10-22T09:30:53.165Z,17.62
2022-10-22T09:33:57.778Z,17.48
2022-10-22T09:38:02.779Z,17.56
2022-10-22T09:41:05.204Z,17.60
2022-10-22T09:44:07.472Z,17.62
2022-10-22T09:47:43.579Z,17.69
2022-10-22T09:51:27.099Z,17.77
2022-10-22T09:54:42.861Z,17.64
2022-10-22T09:57:55.878Z,17.63
2022-10-22T10:01:02.737Z,17.78
2022-10-22T10:04:09.792Z,17.67
2022-10-22T10:07:27.928Z,17.54
2022-10-22T10:15:03.768Z,17.74
2022-10-22T10:18:24.795Z,17.82
2022-10-22T10:22:20.669Z,17.82
2022-10-22T10:25:43.700Z,17.74
2022-10-22T10:28:54.978Z,17.81
2022-10-22T10:32:05.593Z,17.82
2022-10-22T10:35:40.165Z,17.81
2022-10-22T10:38:57.602Z,17.85
2022-10-22T10:42:16.243Z,17.91
2022-10-22T10:46:07.939Z,17.94
2022-10-22T10:49:33.589Z,17.84
2022-10-22T10:52:54.541Z,17.99
2022-10-22T10:56:27.146Z,17.67
2022-10-22T10:59:58.296Z,18.03
2022-10-22T11:03:13.175Z,18.12
2022-10-22T11:06:21.665Z,17.93
2022-10-22T11:09:30.452Z,18.14
2022-10-22T11:12:41.943Z,18.17
2022-10-22T11:15:50.870Z,18.17
2022-10-22T11:19:03.590Z,18.23
2022-10-22T11:22:12.520Z,18.10
2022-10-22T11:25:33.314Z,18.14
2022-10-22T11:28:44.578Z,18.06
2022-10-22T11:31:48.823Z,18.12
2022-10-22T11:34:55.255Z,18.36
2022-10-22T11:37:58.655Z,17.96
2022-10-22T11:41:05.971Z,18.36
2022-10-22T11:44:08.058Z,18.43
2022-10-22T11:47:49.416Z,18.32
2022-10-22T11:50:56.880Z,18.20
2022-10-22T11:54:03.130Z,18.39
2022-10-22T11:57:20.202Z,18.54
2022-10-22T12:00:41.266Z,18.54
2022-10-22T12:03:53.741Z,18.43
2022-10-22T12:07:01.489Z,18.46
2022-10-22T12:10:19.223Z,18.51
2022-10-22T12:13:28.055Z,18.49
2022-10-22T12:16:56.835Z,18.25
2022-10-22T12:20:02.976Z,18.47
2022-10-22T12:23:06.695Z,18.45
2022-10-22T12:26:24.108Z,18.45
2022-10-22T12:29:27.084Z,18.41
2022-10-22T12:32:38.067Z,18.43
2022-10-22T12:35:45.802Z,18.25
2022-10-22T12:38:49.235Z,18.37
2022-10-22T12:41:53.457Z,18.52
2022-10-22T12:44:58.420Z,18.52
2022-10-22T12:48:19.021Z,18.51
2022-10-22T12:51:21.066Z,18.43
2022-10-22T12:54:37.552Z,18.40
2022-10-22T12:57:39.713Z,18.38
2022-10-22T13:00:41.956Z,18.20
2022-10-22T13:03:47.596Z,18.30
2022-10-22T13:07:12.464Z,18.37
2022-10-22T13:10:25.056Z,18.38
2022-10-22T13:13:39.205Z,18.40
2022-10-22T13:16:42.603Z,18.27
2022-10-22T13:19:47.363Z,18.32
2022-10-22T13:23:03.944Z,18.25
2022-10-22T13:26:18.336Z,18.29
2022-10-22T13:29:22.757Z,18.25
2022-10-22T13:32:32.945Z,18.28
2022-10-22T13:35:37.717Z,18.28
2022-10-22T13:38:39.761Z,18.06
2022-10-22T13:41:42.817Z,18.14
2022-10-22T13:44:45.099Z,18.31
2022-10-22T13:47:52.630Z,18.35
2022-10-22T13:50:54.916Z,18.26
2022-10-22T13:54:03.627Z,18.31
2022-10-22T13:57:10.365Z,18.63
2022-10-22T14:00:20.821Z,18.87
2022-10-22T14:03:29.839Z,19.54
2022-10-22T14:06:39.805Z,19.90
2022-10-22T14:09:42.983Z,20.07
2022-10-22T14:12:50.795Z,20.22
2022-10-22T14:15:56.385Z,20.44
2022-10-22T14:18:59.322Z,20.53
2022-10-22T14:22:02.460Z,20.52
2022-10-22T14:25:04.726Z,20.55
2022-10-22T14:28:08.715Z,21.88
2022-10-22T14:31:11.829Z,22.86
2022-10-22T14:34:15.444Z,23.21
2022-10-22T14:37:20.558Z,22.85
2022-10-22T14:40:25.575Z,22.32
2022-10-22T14:43:31.462Z,23.47
2022-10-22T14:46:34.316Z,23.46
2022-10-22T14:49:38.850Z,22.74
2022-10-22T14:52:45.473Z,22.22
2022-10-22T14:55:49.271Z,23.26
2022-10-22T14:58:51.692Z,23.74
2022-10-22T15:01:53.840Z,23.18
2022-10-22T15:07:59.407Z,22.15
2022-10-22T15:11:03.342Z,22.85
2022-10-22T15:14:05.383Z,22.53
2022-10-22T15:17:08.437Z,22.35
2022-10-22T15:20:13.363Z,22.26
2022-10-22T15:23:17.934Z,23.66
2022-10-22T15:26:20.170Z,22.64
2022-10-22T15:29:33.795Z,22.33
2022-10-22T15:33:06.274Z,22.22
2022-10-22T15:36:17.510Z,22.65
2022-10-22T15:39:21.599Z,22.22
2022-10-22T15:42:24.672Z,22.51
2022-10-22T15:45:26.828Z,23.59
2022-10-22T15:48:29.125Z,22.56
2022-10-22T15:51:35.801Z,22.18
2022-10-22T15:58:05.104Z,23.70
2022-10-22T16:01:14.032Z,23.27
2022-10-22T16:04:30.855Z,23.44
2022-10-22T16:07:36.256Z,23.93
2022-10-22T16:10:52.852Z,23.07
2022-10-22T16:14:01.439Z,22.19
2022-10-22T16:17:12.256Z,23.27
2022-10-22T16:20:20.678Z,23.21
2022-10-22T16:23:27.394Z,22.47
2022-10-22T16:26:30.293Z,22.13
2022-10-22T16:29:58.184Z,23.56
2022-10-22T16:33:03.453Z,22.84
2022-10-22T16:36:18.399Z,22.22
2022-10-22T16:39:22.920Z,23.33
2022-10-22T16:42:25.084Z,23.69
2022-10-22T16:45:29.240Z,22.39
2022-10-22T16:48:32.680Z,21.94
2022-10-22T16:51:35.945Z,21.81
2022-10-22T16:54:42.267Z,21.48
2022-10-22T16:57:49.485Z,21.25
2022-10-22T17:00:52.101Z,21.16
2022-10-22T17:03:56.122Z,21.37
2022-10-22T17:06:58.193Z,21.40
2022-10-22T17:10:01.580Z,20.98
2022-10-22T17:13:13.107Z,20.54
2022-10-22T17:16:18.589Z,20.29
2022-10-22T17:19:21.624Z,20.02
2022-10-22T17:22:24.118Z,19.87
2022-10-22T17:25:40.150Z,19.68
2022-10-22T17:28:45.519Z,19.55
2022-10-22T17:31:50.572Z,19.37
2022-10-22T17:34:52.805Z,19.32
2022-10-22T17:38:02.248Z,19.26
2022-10-22T17:41:17.368Z,19.07
2022-10-22T17:44:22.678Z,18.95
2022-10-22T17:47:26.110Z,18.93
2022-10-22T17:50:29.239Z,18.77
2022-10-22T17:53:32.484Z,18.75
2022-10-22T17:56:40.493Z,18.63
2022-10-22T17:59:45.523Z,18.59
2022-10-22T18:02:54.325Z,18.46
2022-10-22T18:06:06.411Z,18.50
2022-10-22T18:09:13.264Z,18.48
2022-10-22T18:12:18.317Z,18.38
2022-10-22T18:15:20.493Z,18.31
2022-10-22T18:18:25.374Z,18.31
2022-10-22T18:21:30.322Z,18.25
2022-10-22T18:24:32.638Z,18.15
2022-10-22T18:27:39.257Z,18.17
2022-10-22T18:30:41.828Z,18.09
2022-10-22T18:33:46.342Z,17.99
2022-10-22T18:36:48.854Z,18.03
2022-10-22T18:39:53.209Z,17.97
2022-10-22T18:42:59.140Z,17.93
2022-10-22T18:46:01.516Z,17.99
2022-10-22T18:49:07.131Z,17.83
2022-10-22T18:52:10.399Z,17.94
2022-10-22T18:55:18.279Z,17.81
2022-10-22T18:58:23.579Z,17.82
2022-10-22T19:01:29.574Z,17.69
2022-10-22T19:04:41.491Z,17.64
2022-10-22T19:07:46.038Z,17.62
2022-10-22T19:10:48.582Z,17.57
2022-10-22T19:13:53.164Z,17.62
2022-10-22T19:16:55.615Z,17.56
2022-10-22T19:20:23.315Z,17.61
2022-10-22T19:23:25.802Z,17.52
2022-10-22T19:26:31.754Z,17.59
2022-10-22T19:29:38.801Z,17.55
2022-10-22T19:32:49.684Z,17.42
2022-10-22T19:36:12.755Z,17.59
2022-10-22T19:39:18.797Z,17.56
2022-10-22T19:42:21.413Z,17.45
2022-10-22T19:45:26.297Z,17.47
2022-10-22T19:48:32.520Z,17.56
2022-10-22T19:51:35.756Z,17.40
2022-10-22T19:58:24.998Z,17.32
2022-10-22T20:01:28.390Z,17.32
2022-10-22T20:05:20.783Z,17.34
2022-10-22T20:08:23.037Z,17.29
2022-10-22T20:11:51.316Z,17.29
2022-10-22T20:14:55.054Z,17.29
2022-10-22T20:17:58.486Z,17.18
2022-10-22T20:21:07.846Z,17.26
2022-10-22T20:24:11.544Z,17.12
2022-10-22T20:27:13.973Z,17.12
2022-10-22T20:33:20.093Z,17.13
2022-10-22T20:36:23.916Z,17.22
2022-10-22T20:39:25.935Z,17.22
2022-10-22T20:42:29.733Z,17.07
2022-10-22T20:45:32.212Z,17.18
2022-10-22T20:48:34.856Z,17.06
2022-10-22T20:51:39.148Z,17.11
2022-10-22T20:54:44.262Z,17.05
2022-10-22T20:57:46.770Z,16.94
2022-10-22T21:00:51.220Z,16.97
2022-10-22T21:03:53.489Z,17.06
2022-10-22T21:06:58.213Z,16.90
2022-10-22T21:10:00.567Z,16.94
2022-10-22T21:13:05.075Z,16.94
2022-10-22T21:16:13.570Z,16.96
2022-10-22T21:19:16.562Z,16.95
2022-10-22T21:22:18.682Z,17.06
2022-10-22T21:25:20.744Z,16.82
2022-10-22T21:28:26.079Z,16.85
2022-10-22T21:31:28.263Z,16.89
2022-10-22T21:34:30.793Z,16.78
2022-10-22T21:37:36.843Z,16.85
2022-10-22T21:40:39.808Z,16.89
2022-10-22T21:43:44.023Z,16.87
2022-10-22T21:46:46.789Z,16.74
2022-10-22T21:49:49.585Z,16.84
2022-10-22T21:52:54.617Z,16.80
2022-10-22T21:55:56.649Z,16.75
2022-10-22T21:58:59.897Z,16.83
2022-10-22T22:02:05.789Z,16.93
2022-10-22T22:05:09.301Z,16.75
2022-10-22T22:08:14.692Z,16.96
2022-10-22T22:11:19.298Z,16.93
2022-10-22T22:14:27.517Z,16.88
2022-10-22T22:17:29.624Z,16.97
2022-10-22T22:20:35.326Z,16.91
2022-10-22T22:23:39.596Z,16.85
2022-10-22T22:26:42.808Z,16.89
2022-10-22T22:29:45.800Z,16.81
2022-10-22T22:32:48.848Z,16.85
2022-10-22T22:35:51.817Z,16.74
2022-10-22T22:38:56.334Z,16.74
2022-10-22T22:41:58.473Z,16.64
2022-10-22T22:45:00.411Z,16.66
2022-10-22T22:48:03.106Z,16.69
2022-10-22T22:51:06.059Z,16.63
2022-10-22T22:54:09.961Z,16.48
2022-10-22T22:57:12.052Z,16.55
2022-10-22T23:00:14.775Z,16.59
2022-10-22T23:03:18.494Z,16.57
2022-10-22T23:06:27.840Z,16.67
2022-10-22T23:09:29.885Z,16.77
2022-10-22T23:12:32.138Z,16.68
2022-10-22T23:15:34.147Z,16.70
2022-10-22T23:18:41.505Z,16.66
2022-10-22T23:21:49.735Z,16.70
2022-10-22T23:24:51.828Z,16.62
2022-10-22T23:27:53.867Z,16.57
2022-10-22T23:30:58.331Z,16.58
2022-10-22T23:34:01.137Z,16.57
2022-10-22T23:37:03.990Z,16.57
2022-10-22T23:40:07.110Z,16.40
2022-10-22T23:43:09.289Z,16.33
2022-10-22T23:46:13.931Z,16.47
2022-10-22T23:49:20.356Z,16.43
2022-10-22T23:52:23.681Z,16.50
2022-10-22T23:55:25.949Z,16.65
2022-10-22T23:58:28.688Z,16.73
